Time,TemperatureF,DewpointF,PressureIn,WindDirection,WindDirectionDegrees,WindSpeedMPH,WindSpeedGustMPH,Humidity,HourlyPrecipIn,Conditions,Clouds,dailyrainin,SoftwareType,DateUTC
2013-09-23 00:01:00,52.3,49.5,30.01,ENE,68,0.0,0.0,90,0.00,RA,,0.00,WeatherDisplay:10.37,2013-09-23 04:01:00,
2013-09-23 00:02:00,52.3,49.5,30.01,ENE,68,0.0,0.0,90,0.00,RA,,0.00,WeatherDisplay:10.37,2013-09-23 04:02:00,
2013-09-23 00:04:00,52.3,49.5,30.01,ENE,68,0.0,0.0,90,0.00,RA,,0.00,WeatherDisplay:10.37,2013-09-23 04:04:00,
2013-09-23 00:09:00,52.3,49.8,30.01,ENE,68,0.0,0.0,91,0.00,RA,,0.00,WeatherDisplay:10.37,2013-09-23 04:09:00,
2013-09-23 00:10:00,52.3,49.8,30.01,ENE,68,0.0,0.0,91,0.00,RA,RA,0.00,WeatherDisplay:10.37,2013-09-23 04:10:00,
2013-09-23 00:11:00,52.1,49.6,30.01,ENE,68,0.0,0.0,91,0.00,RA,,0.00,WeatherDisplay:10.37,2013-09-23 04:11:00,
2013-09-23 00:16:00,52.3,50.4,30.01,ENE,68,0.0,0.0,93,0.00,OVC,,0.00,WeatherDisplay:10.37,2013-09-23 04:16:00,
2013-09-23 00:21:00,52.1,49.9,30.01,ENE,68,0.0,0.0,92,0.00,OVC,,0.00,WeatherDisplay:10.37,2013-09-23 04:21:00,
2013-09-23 00:26:00,52.1,50.2,30.01,ENE,68,0.0,0.0,93,0.00,OVC,,0.00,WeatherDisplay:10.37,2013-09-23 04:26:00,
2013-09-23 00:31:00,52.3,50.6,30.01,ENE,68,0.0,0.0,94,0.00,OVC,,0.00,WeatherDisplay:10.37,2013-09-23 04:31:00,
2013-09-23 00:36:00,52.1,50.4,30.01,ENE,68,0.0,0.0,94,0.00,OVC,,0.00,WeatherDisplay:10.37,2013-09-23 04:36:00,
2013-09-23 00:41:00,52.1,50.2,30.00,ENE,68,0.0,0.0,93,0.00,OVC,,0.00,WeatherDisplay:10.37,2013-09-23 04:41:00,
2013-09-23 00:46:00,52.0,50.1,30.00,ENE,68,0.0,0.0,93,0.00,OVC,,0.00,WeatherDisplay:10.37,2013-09-23 04:46:00,
2013-09-23 00:51:00,52.1,50.4,30.00,ENE,68,0.0,0.0,94,0.00,OVC,,0.00,WeatherDisplay:10.37,2013-09-23 04:51:00,
2013-09-23 00:56:00,52.1,50.7,30.01,ENE,68,0.0,0.0,95,0.00,OVC,,0.00,WeatherDisplay:10.37,2013-09-23 04:56:00,
2013-09-23 01:01:00,52.1,50.7,30.01,ENE,68,0.0,0.0,95,0.00,OVC,,0.00,WeatherDisplay:10.37,2013-09-23 05:01:00,
2013-09-23 01:06:00,52.0,50.6,30.00,ENE,68,0.0,0.0,95,0.00,OVC,,0.00,WeatherDisplay:10.37,2013-09-23 05:06:00,
2013-09-23 01:11:00,52.0,50.6,30.00,ENE,68,0.0,0.0,95,0.00,OVC,,0.00,WeatherDisplay:10.37,2013-09-23 05:11:00,
2013-09-23 01:16:00,52.0,50.6,30.00,ENE,68,0.0,0.0,95,0.00,OVC,,0.00,WeatherDisplay:10.37,2013-09-23 05:16:00,
2013-09-23 01:21:00,52.0,50.9,30.01,ENE,68,0.0,0.0,96,0.00,OVC,,0.00,WeatherDisplay:10.37,2013-09-23 05:21:00,
2013-09-23 01:26:00,51.8,50.7,30.01,ENE,68,0.0,0.0,96,0.00,OVC,,0.00,WeatherDisplay:10.37,2013-09-23 05:26:00,
2013-09-23 01:31:00,51.8,50.4,30.00,ENE,68,0.0,0.0,95,0.00,OVC,,0.00,WeatherDisplay:10.37,2013-09-23 05:31:00,
2013-09-23 01:36:00,51.8,50.4,30.00,ENE,68,0.0,0.0,95,0.00,OVC,,0.00,WeatherDisplay:10.37,2013-09-23 05:36:00,
2013-09-23 01:41:00,51.8,50.4,30.00,ENE,68,0.0,0.0,95,0.00,OVC,,0.00,WeatherDisplay:10.37,2013-09-23 05:41:00,
2013-09-23 01:46:00,51.8,50.4,30.01,ENE,68,0.0,0.0,95,0.00,OVC,,0.00,WeatherDisplay:10.37,2013-09-23 05:46:00,
2013-09-23 01:51:00,51.8,50.4,30.01,ENE,68,0.0,0.0,95,0.00,OVC,,0.00,WeatherDisplay:10.37,2013-09-23 05:51:00,
2013-09-23 01:56:00,51.8,50.4,30.01,ENE,68,0.0,0.0,95,0.00,OVC,,0.00,WeatherDisplay:10.37,2013-09-23 05:56:00,
2013-09-23 02:01:00,51.8,50.4,30.01,ENE,68,0.0,0.0,95,0.00,OVC,,0.00,WeatherDisplay:10.37,2013-09-23 06:01:00,
2013-09-23 02:06:00,51.8,50.4,30.01,ENE,68,0.0,0.0,95,0.00,OVC,,0.00,WeatherDisplay:10.37,2013-09-23 06:06:00,
2013-09-23 02:11:00,51.8,50.4,30.01,ENE,68,0.0,0.0,95,0.00,OVC,,0.00,WeatherDisplay:10.37,2013-09-23 06:11:00,
2013-09-23 02:16:00,51.8,50.4,30.01,ENE,68,0.0,0.0,95,0.00,OVC,,0.00,WeatherDisplay:10.37,2013-09-23 06:16:00,
2013-09-23 02:21:00,51.6,50.2,30.01,ENE,68,0.0,0.0,95,0.00,OVC,,0.00,WeatherDisplay:10.37,2013-09-23 06:21:00,
2013-09-23 02:26:00,51.6,50.2,30.01,ENE,68,0.0,0.0,95,0.00,OVC,,0.00,WeatherDisplay:10.37,2013-09-23 06:26:00,
2013-09-23 02:31:00,51.6,50.2,30.02,ENE,68,0.0,0.0,95,0.00,OVC,,0.00,WeatherDisplay:10.37,2013-09-23 06:31:00,
2013-09-23 02:36:00,51.6,50.2,30.02,ENE,68,0.0,0.0,95,0.00,OVC,,0.00,WeatherDisplay:10.37,2013-09-23 06:36:00,
2013-09-23 02:41:00,51.6,50.2,30.02,ENE,68,0.0,0.0,95,0.00,OVC,,0.00,WeatherDisplay:10.37,2013-09-23 06:41:00,
2013-09-23 02:46:00,51.6,50.2,30.01,ENE,68,0.0,0.0,95,0.00,OVC,,0.00,WeatherDisplay:10.37,2013-09-23 06:46:00,
2013-09-23 02:51:00,51.6,50.2,30.01,ENE,68,0.0,0.0,95,0.00,OVC,,0.00,WeatherDisplay:10.37,2013-09-23 06:51:00,
2013-09-23 02:56:00,51.4,50.0,30.02,ENE,68,1.9,3.6,95,0.00,OVC,,0.00,WeatherDisplay:10.37,2013-09-23 06:56:00,
2013-09-23 03:01:00,51.4,50.0,30.02,ENE,68,1.8,3.6,95,0.00,OVC,,0.00,WeatherDisplay:10.37,2013-09-23 07:01:00,
2013-09-23 03:06:00,51.6,50.2,30.01,ENE,68,0.0,0.0,95,0.00,OVC,,0.00,WeatherDisplay:10.37,2013-09-23 07:06:00,
2013-09-23 03:11:00,51.6,50.2,30.01,ENE,68,0.0,0.0,95,0.00,OVC,,0.00,WeatherDisplay:10.37,2013-09-23 07:11:00,
2013-09-23 03:16:00,51.4,50.0,30.01,NNW,338,1.9,4.6,95,0.00,OVC,,0.00,WeatherDisplay:10.37,2013-09-23 07:16:00,
2013-09-23 03:21:00,51.6,49.9,30.02,NNW,338,0.2,2.3,94,0.00,OVC,,0.00,WeatherDisplay:10.37,2013-09-23 07:21:00,
2013-09-23 03:26:00,51.8,50.1,30.02,NNW,338,0.0,0.0,94,0.00,OVC,,0.00,WeatherDisplay:10.37,2013-09-23 07:26:00,
2013-09-23 03:31:00,51.6,49.9,30.02,North,360,2.7,3.6,94,0.00,OVC,,0.00,WeatherDisplay:10.37,2013-09-23 07:31:00,
2013-09-23 03:36:00,51.6,49.9,30.02,NNW,338,0.0,3.5,94,0.00,OVC,,0.00,WeatherDisplay:10.37,2013-09-23 07:36:00,
2013-09-23 03:41:00,51.6,49.9,30.02,NNW,338,0.0,0.0,94,0.00,OVC,,0.00,WeatherDisplay:10.37,2013-09-23 07:41:00,
2013-09-23 03:46:00,51.6,50.2,30.02,NNW,338,0.0,0.0,95,0.00,OVC,,0.00,WeatherDisplay:10.37,2013-09-23 07:46:00,
2013-09-23 03:51:00,51.8,50.4,30.02,NNW,338,0.0,0.0,95,0.00,OVC,,0.00,WeatherDisplay:10.37,2013-09-23 07:51:00,
2013-09-23 03:56:00,51.8,50.4,30.02,NNW,338,0.0,0.0,95,0.00,OVC,,0.00,WeatherDisplay:10.37,2013-09-23 07:56:00,
2013-09-23 04:01:00,51.8,50.4,30.02,NNW,338,0.0,0.0,95,0.00,OVC,,0.00,WeatherDisplay:10.37,2013-09-23 08:01:00,
2013-09-23 04:06:00,51.6,50.2,30.02,NNW,338,0.0,0.0,95,0.00,OVC,,0.00,WeatherDisplay:10.37,2013-09-23 08:06:00,
2013-09-23 04:11:00,51.4,50.0,30.02,ESE,112,0.4,3.5,95,0.00,OVC,,0.00,WeatherDisplay:10.37,2013-09-23 08:11:00,
2013-09-23 04:16:00,51.4,50.0,30.02,ESE,112,0.0,0.0,95,0.00,OVC,,0.00,WeatherDisplay:10.37,2013-09-23 08:16:00,
2013-09-23 04:21:00,51.4,50.0,30.02,ESE,112,0.0,0.0,95,0.00,OVC,,0.00,WeatherDisplay:10.37,2013-09-23 08:21:00,
2013-09-23 04:26:00,51.6,50.2,30.02,ESE,112,0.0,0.0,95,0.00,OVC,,0.00,WeatherDisplay:10.37,2013-09-23 08:26:00,
2013-09-23 04:31:00,51.6,50.5,30.03,ESE,112,0.0,0.0,96,0.00,OVC,,0.00,WeatherDisplay:10.37,2013-09-23 08:31:00,
2013-09-23 04:36:00,51.4,50.3,30.03,WNW,292,0.0,0.0,96,0.00,OVC,,0.00,WeatherDisplay:10.37,2013-09-23 08:36:00,
2013-09-23 04:41:00,51.4,50.3,30.03,WNW,292,0.0,0.0,96,0.00,OVC,,0.00,WeatherDisplay:10.37,2013-09-23 08:41:00,
2013-09-23 04:46:00,51.2,50.1,30.03,WNW,292,0.1,3.6,96,0.00,OVC,,0.00,WeatherDisplay:10.37,2013-09-23 08:46:00,
2013-09-23 04:51:00,51.2,50.1,30.03,WNW,292,3.0,3.6,96,0.00,OVC,,0.00,WeatherDisplay:10.37,2013-09-23 08:51:00,
2013-09-23 04:56:00,51.2,50.1,30.04,WNW,292,0.0,2.3,96,0.00,OVC,,0.00,WeatherDisplay:10.37,2013-09-23 08:56:00,
2013-09-23 05:01:00,51.4,50.3,30.04,WNW,292,0.0,0.0,96,0.00,OVC,,0.00,WeatherDisplay:10.37,2013-09-23 09:01:00,
2013-09-23 05:06:00,51.2,50.1,30.04,WNW,292,0.4,2.3,96,0.00,OVC,,0.00,WeatherDisplay:10.37,2013-09-23 09:06:00,
2013-09-23 05:11:00,51.2,50.1,30.04,WNW,292,0.6,2.3,96,0.00,OVC,,0.00,WeatherDisplay:10.37,2013-09-23 09:11:00,
2013-09-23 05:16:00,51.2,50.1,30.04,WNW,292,0.0,0.0,96,0.00,OVC,,0.00,WeatherDisplay:10.37,2013-09-23 09:16:00,
2013-09-23 05:21:00,51.2,50.1,30.04,WNW,292,0.0,0.0,96,0.00,OVC,,0.00,WeatherDisplay:10.37,2013-09-23 09:21:00,
2013-09-23 05:26:00,51.2,50.1,30.04,East,90,2.4,4.4,96,0.00,OVC,,0.00,WeatherDisplay:10.37,2013-09-23 09:26:00,
2013-09-23 05:31:00,51.1,50.0,30.04,East,90,0.8,3.5,96,0.00,OVC,,0.00,WeatherDisplay:10.37,2013-09-23 09:31:00,
2013-09-23 05:36:00,51.1,50.0,30.04,NE,45,1.9,3.6,96,0.00,OVC,,0.00,WeatherDisplay:10.37,2013-09-23 09:36:00,
2013-09-23 05:41:00,51.1,50.0,30.04,NW,315,2.1,4.6,96,0.00,OVC,,0.00,WeatherDisplay:10.37,2013-09-23 09:41:00,
2013-09-23 05:46:00,51.1,50.0,30.04,ESE,112,2.5,3.6,96,0.00,OVC,,0.00,WeatherDisplay:10.37,2013-09-23 09:46:00,
2013-09-23 05:51:00,51.1,50.0,30.04,ESE,112,2.7,4.6,96,0.00,OVC,,0.00,WeatherDisplay:10.37,2013-09-23 09:51:00,
2013-09-23 05:56:00,51.1,50.0,30.04,ESE,112,0.0,3.5,96,0.00,OVC,,0.00,WeatherDisplay:10.37,2013-09-23 09:56:00,
2013-09-23 06:01:00,51.2,50.1,30.04,ESE,112,0.0,0.0,96,0.00,OVC,,0.00,WeatherDisplay:10.37,2013-09-23 10:01:00,
2013-09-23 06:06:00,51.2,50.1,30.05,ESE,112,0.0,0.0,96,0.00,OVC,,0.00,WeatherDisplay:10.37,2013-09-23 10:06:00,
2013-09-23 06:11:00,51.2,50.1,30.05,NNW,338,1.9,2.7,96,0.00,OVC,,0.00,WeatherDisplay:10.37,2013-09-23 10:11:00,
2013-09-23 06:16:00,51.2,50.1,30.05,NNW,338,0.0,0.0,96,0.00,OVC,,0.00,WeatherDisplay:10.37,2013-09-23 10:16:00,
2013-09-23 06:21:00,51.2,50.1,30.05,NNW,338,0.4,2.3,96,0.00,OVC,,0.00,WeatherDisplay:10.37,2013-09-23 10:21:00,
2013-09-23 06:26:00,51.2,50.1,30.05,NNW,338,0.0,0.0,96,0.00,OVC,,0.00,WeatherDisplay:10.37,2013-09-23 10:26:00,
2013-09-23 06:31:00,51.2,50.1,30.05,NNW,338,0.0,0.0,96,0.00,OVC,,0.00,WeatherDisplay:10.37,2013-09-23 10:31:00,
2013-09-23 06:36:00,51.1,50.0,30.05,NNW,338,0.0,0.0,96,0.00,OVC,,0.00,WeatherDisplay:10.37,2013-09-23 10:36:00,
2013-09-23 06:41:00,51.1,50.0,30.05,NNW,338,0.0,0.0,96,0.00,OVC,,0.00,WeatherDisplay:10.37,2013-09-23 10:41:00,
2013-09-23 06:46:00,51.1,50.0,30.05,NNW,338,0.0,0.0,96,0.00,OVC,,0.00,WeatherDisplay:10.37,2013-09-23 10:46:00,
2013-09-23 06:51:00,51.1,50.0,30.05,NNW,338,0.0,0.0,96,0.00,OVC,,0.00,WeatherDisplay:10.37,2013-09-23 10:51:00,
2013-09-23 06:56:00,51.1,50.0,30.06,NNW,338,0.0,0.0,96,0.00,OVC,,0.00,WeatherDisplay:10.37,2013-09-23 10:56:00,
2013-09-23 07:01:00,51.1,50.0,30.06,NNW,338,0.0,0.0,96,0.00,OVC,,0.00,WeatherDisplay:10.37,2013-09-23 11:01:00,
2013-09-23 07:06:00,51.1,50.0,30.06,NNW,338,0.0,0.0,96,0.00,OVC,,0.00,WeatherDisplay:10.37,2013-09-23 11:06:00,
2013-09-23 07:11:00,51.1,49.7,30.06,NNW,338,0.0,0.0,95,0.00,OVC,,0.00,WeatherDisplay:10.37,2013-09-23 11:11:00,
2013-09-23 07:16:00,51.1,50.0,30.06,NNW,338,0.0,0.0,96,0.00,OVC,,0.00,WeatherDisplay:10.37,2013-09-23 11:16:00,
2013-09-23 07:21:00,50.9,49.5,30.07,NNW,338,0.0,0.0,95,0.00,OVC,,0.00,WeatherDisplay:10.37,2013-09-23 11:21:00,
2013-09-23 07:26:00,50.9,49.5,30.07,NNW,338,0.0,0.0,95,0.00,OVC,,0.00,WeatherDisplay:10.37,2013-09-23 11:26:00,
2013-09-23 07:31:00,51.1,49.5,30.07,NNW,338,0.0,0.0,94,0.00,OVC,,0.00,WeatherDisplay:10.37,2013-09-23 11:31:00,
2013-09-23 07:36:00,51.1,49.2,30.07,NNW,338,0.0,0.0,93,0.00,OVC,,0.00,WeatherDisplay:10.37,2013-09-23 11:36:00,
2013-09-23 07:41:00,51.1,48.9,30.08,NNW,338,0.0,0.0,92,0.00,OVC,,0.00,WeatherDisplay:10.37,2013-09-23 11:41:00,
2013-09-23 07:46:00,51.2,49.8,30.08,NNW,338,0.0,0.0,95,0.00,OVC,,0.00,WeatherDisplay:10.37,2013-09-23 11:46:00,
2013-09-23 07:51:00,51.1,48.9,30.08,NNW,338,0.0,0.0,92,0.00,OVC,,0.00,WeatherDisplay:10.37,2013-09-23 11:51:00,
2013-09-23 07:56:00,51.2,48.7,30.08,NNW,338,0.0,0.0,91,0.00,OVC,,0.00,WeatherDisplay:10.37,2013-09-23 11:56:00,
2013-09-23 08:01:00,51.4,48.6,30.08,NNW,338,0.0,0.0,90,0.00,OVC,,0.00,WeatherDisplay:10.37,2013-09-23 12:01:00,
2013-09-23 08:06:00,51.4,48.0,30.08,NNW,338,0.0,0.0,88,0.00,OVC,,0.00,WeatherDisplay:10.37,2013-09-23 12:06:00,
2013-09-23 08:11:00,51.4,48.0,30.08,NNW,338,0.0,0.0,88,0.00,OVC,,0.00,WeatherDisplay:10.37,2013-09-23 12:11:00,
2013-09-23 08:16:00,51.6,48.5,30.08,NNW,338,0.0,0.0,89,0.00,OVC,,0.00,WeatherDisplay:10.37,2013-09-23 12:16:00,
2013-09-23 08:21:00,51.6,48.5,30.08,NNW,338,0.0,0.0,89,0.00,OVC,,0.00,WeatherDisplay:10.37,2013-09-23 12:21:00,
2013-09-23 08:26:00,51.6,47.9,30.08,ENE,68,3.1,3.6,87,0.00,OVC,,0.00,WeatherDisplay:10.37,2013-09-23 12:26:00,
2013-09-23 08:31:00,52.0,47.6,30.09,NE,45,2.9,5.3,85,0.00,OVC,,0.00,WeatherDisplay:10.37,2013-09-23 12:31:00,
2013-09-23 08:36:00,52.1,46.8,30.09,West,270,4.1,7.0,82,0.00,OVC,,0.00,WeatherDisplay:10.37,2013-09-23 12:36:00,
2013-09-23 08:41:00,52.5,46.9,30.09,NE,45,6.4,9.5,81,0.00,OVC,,0.00,WeatherDisplay:10.37,2013-09-23 12:41:00,
2013-09-23 08:46:00,52.5,47.2,30.09,NE,45,6.1,7.0,82,0.00,OVC,,0.00,WeatherDisplay:10.37,2013-09-23 12:46:00,
2013-09-23 08:51:00,52.9,47.6,30.09,ENE,68,4.7,6.1,82,0.00,OVC,,0.00,WeatherDisplay:10.37,2013-09-23 12:51:00,
2013-09-23 08:56:00,53.0,47.3,30.09,ENE,68,5.6,6.9,81,0.00,OVC,,0.00,WeatherDisplay:10.37,2013-09-23 12:56:00,
2013-09-23 09:01:00,53.0,47.3,30.09,ENE,68,4.2,5.3,81,0.00,OVC,,0.00,WeatherDisplay:10.37,2013-09-23 13:01:00,
2013-09-23 09:06:00,53.4,47.7,30.09,NW,315,3.3,5.8,81,0.00,OVC,,0.00,WeatherDisplay:10.37,2013-09-23 13:06:00,
2013-09-23 09:11:00,53.4,47.4,30.09,NE,45,5.3,9.2,80,0.00,OVC,,0.00,WeatherDisplay:10.37,2013-09-23 13:11:00,
2013-09-23 09:16:00,53.8,47.8,30.10,ENE,68,5.0,7.0,80,0.00,OVC,,0.00,WeatherDisplay:10.37,2013-09-23 13:16:00,
2013-09-23 09:21:00,53.9,47.9,30.10,ENE,68,3.9,5.8,80,0.00,OVC,,0.00,WeatherDisplay:10.37,2013-09-23 13:21:00,
2013-09-23 09:26:00,54.1,47.1,30.10,East,90,6.0,8.1,77,0.00,OVC,,0.00,WeatherDisplay:10.37,2013-09-23 13:26:00,
2013-09-23 09:31:00,54.3,47.6,30.10,NE,45,4.9,5.8,78,0.00,OVC,,0.00,WeatherDisplay:10.37,2013-09-23 13:31:00,
2013-09-23 09:36:00,54.3,46.9,30.10,NNE,22,4.3,5.8,76,0.00,OVC,,0.00,WeatherDisplay:10.37,2013-09-23 13:36:00,
2013-09-23 09:41:00,54.5,45.7,30.10,ENE,68,4.5,5.8,72,0.00,OVC,,0.00,WeatherDisplay:10.37,2013-09-23 13:41:00,
2013-09-23 09:46:00,54.3,44.7,30.10,NE,45,5.7,9.2,70,0.00,OVC,,0.00,WeatherDisplay:10.37,2013-09-23 13:46:00,
2013-09-23 09:51:00,54.3,44.0,30.10,NE,45,5.5,6.1,68,0.00,OVC,,0.00,WeatherDisplay:10.37,2013-09-23 13:51:00,
2013-09-23 09:56:00,54.5,44.2,30.10,East,90,4.5,6.9,68,0.00,OVC,,0.00,WeatherDisplay:10.37,2013-09-23 13:56:00,
2013-09-23 10:01:00,54.8,44.1,30.10,NE,45,5.0,7.8,67,0.00,OVC,,0.00,WeatherDisplay:10.37,2013-09-23 14:01:00,
2013-09-23 10:06:00,55.0,44.3,30.10,North,360,6.5,8.1,67,0.00,OVC,,0.00,WeatherDisplay:10.37,2013-09-23 14:06:00,
2013-09-23 10:11:00,55.4,44.6,30.10,NE,45,3.5,6.9,67,0.00,OVC,,0.00,WeatherDisplay:10.37,2013-09-23 14:11:00,
2013-09-23 10:16:00,55.2,44.4,30.11,NE,45,7.5,9.2,67,0.00,OVC,,0.00,WeatherDisplay:10.37,2013-09-23 14:16:00,
2013-09-23 10:21:00,55.2,44.1,30.11,ENE,68,5.0,6.9,66,0.00,OVC,,0.00,WeatherDisplay:10.37,2013-09-23 14:21:00,
2013-09-23 10:26:00,55.6,43.6,30.11,ENE,68,5.8,8.1,64,0.00,OVC,,0.00,WeatherDisplay:10.37,2013-09-23 14:26:00,
2013-09-23 10:31:00,55.4,44.2,30.11,East,90,4.7,6.9,66,0.00,OVC,,0.00,WeatherDisplay:10.37,2013-09-23 14:31:00,
2013-09-23 10:36:00,55.6,44.4,30.11,NNE,22,5.0,6.1,66,0.00,OVC,,0.00,WeatherDisplay:10.37,2013-09-23 14:36:00,
2013-09-23 10:41:00,55.6,44.8,30.11,NE,45,7.2,9.2,67,0.00,OVC,,0.00,WeatherDisplay:10.37,2013-09-23 14:41:00,
2013-09-23 10:46:00,55.4,44.6,30.11,WNW,292,6.1,9.5,67,0.00,OVC,,0.00,WeatherDisplay:10.37,2013-09-23 14:46:00,
2013-09-23 10:51:00,55.7,44.5,30.11,NE,45,6.6,8.7,66,0.00,OVC,,0.00,WeatherDisplay:10.37,2013-09-23 14:51:00,
2013-09-23 10:56:00,55.6,44.4,30.11,NE,45,4.8,6.1,66,0.00,OVC,,0.00,WeatherDisplay:10.37,2013-09-23 14:56:00,
2013-09-23 11:01:00,55.7,44.5,30.11,NE,45,5.5,9.2,66,0.00,OVC,,0.00,WeatherDisplay:10.37,2013-09-23 15:01:00,
2013-09-23 11:06:00,55.9,45.5,30.12,ESE,112,7.2,9.5,68,0.00,OVC,,0.00,WeatherDisplay:10.37,2013-09-23 15:06:00,
2013-09-23 11:11:00,55.9,45.5,30.12,ENE,68,7.4,9.5,68,0.00,OVC,,0.00,WeatherDisplay:10.37,2013-09-23 15:11:00,
2013-09-23 11:16:00,55.9,45.5,30.12,East,90,5.6,7.8,68,0.00,OVC,,0.00,WeatherDisplay:10.37,2013-09-23 15:16:00,
2013-09-23 11:21:00,56.1,45.3,30.12,NE,45,4.4,5.8,67,0.00,OVC,,0.00,WeatherDisplay:10.37,2013-09-23 15:21:00,
2013-09-23 11:26:00,56.5,45.7,30.12,NNE,22,6.8,7.8,67,0.00,OVC,,0.00,WeatherDisplay:10.37,2013-09-23 15:26:00,
2013-09-23 11:31:00,55.9,43.9,30.12,NE,45,6.5,7.8,64,0.00,OVC,,0.00,WeatherDisplay:10.37,2013-09-23 15:31:00,
2013-09-23 11:36:00,56.1,45.3,30.12,ENE,68,3.8,9.2,67,0.00,OVC,,0.00,WeatherDisplay:10.37,2013-09-23 15:36:00,
2013-09-23 11:41:00,56.1,44.5,30.13,NE,45,2.0,6.9,65,0.00,OVC,,0.00,WeatherDisplay:10.37,2013-09-23 15:41:00,
2013-09-23 11:46:00,56.3,44.3,30.13,East,90,1.8,4.6,64,0.00,OVC,,0.00,WeatherDisplay:10.37,2013-09-23 15:46:00,
2013-09-23 11:51:00,56.5,44.5,30.13,ENE,68,5.0,6.1,64,0.00,OVC,,0.00,WeatherDisplay:10.37,2013-09-23 15:51:00,
2013-09-23 11:57:00,56.1,44.9,30.13,NNE,22,5.9,7.0,66,0.00,OVC,,0.00,WeatherDisplay:10.37,2013-09-23 15:57:00,
2013-09-23 12:02:00,55.4,43.8,30.13,NE,45,5.9,10.4,65,0.00,OVC,,0.00,WeatherDisplay:10.37,2013-09-23 16:02:00,
2013-09-23 12:07:00,55.4,44.2,30.13,North,360,3.0,6.9,66,0.00,OVC,,0.00,WeatherDisplay:10.37,2013-09-23 16:07:00,
2013-09-23 12:12:00,55.2,43.7,30.13,East,90,7.7,9.5,65,0.00,OVC,,0.00,WeatherDisplay:10.37,2013-09-23 16:12:00,
2013-09-23 12:17:00,54.7,43.6,30.13,NE,45,8.1,10.4,66,0.00,OVC,,0.00,WeatherDisplay:10.37,2013-09-23 16:17:00,
2013-09-23 12:22:00,54.8,43.7,30.13,NE,45,6.8,8.1,66,0.00,OVC,,0.00,WeatherDisplay:10.37,2013-09-23 16:22:00,
2013-09-23 12:27:00,55.4,44.2,30.13,ENE,68,3.5,6.9,66,0.00,OVC,,0.00,WeatherDisplay:10.37,2013-09-23 16:27:00,
2013-09-23 12:32:00,55.7,43.7,30.13,ENE,68,4.3,5.8,64,0.00,OVC,,0.00,WeatherDisplay:10.37,2013-09-23 16:32:00,
2013-09-23 12:37:00,56.3,44.3,30.13,NE,45,4.0,8.1,64,0.00,OVC,,0.00,WeatherDisplay:10.37,2013-09-23 16:37:00,
2013-09-23 12:42:00,55.9,43.9,30.13,NNE,22,5.3,12.7,64,0.00,OVC,,0.00,WeatherDisplay:10.37,2013-09-23 16:42:00,
2013-09-23 12:47:00,55.7,44.1,30.13,NE,45,6.7,9.5,65,0.00,OVC,,0.00,WeatherDisplay:10.37,2013-09-23 16:47:00,
2013-09-23 12:52:00,56.3,44.3,30.13,NNE,22,6.4,8.7,64,0.00,OVC,,0.00,WeatherDisplay:10.37,2013-09-23 16:52:00,
2013-09-23 12:57:00,55.9,44.3,30.13,NE,45,10.1,14.6,65,0.00,OVC,,0.00,WeatherDisplay:10.37,2013-09-23 16:57:00,
2013-09-23 13:02:00,55.9,43.9,30.13,NNE,22,6.8,9.2,64,0.00,OVC,,0.00,WeatherDisplay:10.37,2013-09-23 17:02:00,
2013-09-23 13:07:00,56.6,44.6,30.13,NE,45,3.3,4.6,64,0.00,OVC,,0.00,WeatherDisplay:10.37,2013-09-23 17:07:00,
2013-09-23 13:12:00,56.8,44.4,30.13,NE,45,3.2,4.6,63,0.00,OVC,,0.00,WeatherDisplay:10.37,2013-09-23 17:12:00,
2013-09-23 13:17:00,56.8,43.9,30.13,NE,45,8.1,9.5,62,0.00,OVC,,0.00,WeatherDisplay:10.37,2013-09-23 17:17:00,
2013-09-23 13:22:00,56.3,43.9,30.13,East,90,4.3,8.1,63,0.00,OVC,,0.00,WeatherDisplay:10.37,2013-09-23 17:22:00,
2013-09-23 13:27:00,56.6,44.2,30.13,East,90,4.7,9.2,63,0.00,OVC,,0.00,WeatherDisplay:10.37,2013-09-23 17:27:00,
2013-09-23 13:32:00,57.0,44.5,30.13,NW,315,4.5,7.8,63,0.00,OVC,,0.00,WeatherDisplay:10.37,2013-09-23 17:32:00,
2013-09-23 13:37:00,56.8,44.4,30.13,NNE,22,6.3,8.1,63,0.00,OVC,,0.00,WeatherDisplay:10.37,2013-09-23 17:37:00,
2013-09-23 13:42:00,57.4,44.5,30.12,NW,315,4.6,8.1,62,0.00,OVC,,0.00,WeatherDisplay:10.37,2013-09-23 17:42:00,
2013-09-23 13:47:00,57.4,44.5,30.12,North,360,4.7,6.9,62,0.00,OVC,,0.00,WeatherDisplay:10.37,2013-09-23 17:47:00,
2013-09-23 13:52:00,57.0,43.7,30.12,ENE,68,6.5,8.1,61,0.00,OVC,,0.00,WeatherDisplay:10.37,2013-09-23 17:52:00,
2013-09-23 13:57:00,56.5,44.1,30.12,ENE,68,8.2,10.4,63,0.00,OVC,,0.00,WeatherDisplay:10.37,2013-09-23 17:57:00,
2013-09-23 14:02:00,56.1,43.7,30.12,ENE,68,6.3,9.2,63,0.00,OVC,,0.00,WeatherDisplay:10.37,2013-09-23 18:02:00,
2013-09-23 14:07:00,57.0,43.3,30.12,NE,45,0.6,2.3,60,0.00,OVC,,0.00,WeatherDisplay:10.37,2013-09-23 18:07:00,
2013-09-23 14:12:00,57.4,43.6,30.12,NNE,22,6.3,10.4,60,0.00,OVC,,0.00,WeatherDisplay:10.37,2013-09-23 18:12:00,
2013-09-23 14:17:00,57.5,44.2,30.12,NNE,22,6.6,8.1,61,0.00,OVC,,0.00,WeatherDisplay:10.37,2013-09-23 18:17:00,
2013-09-23 14:22:00,57.0,43.7,30.12,ENE,68,6.5,8.1,61,0.00,OVC,,0.00,WeatherDisplay:10.37,2013-09-23 18:22:00,
2013-09-23 14:27:00,57.4,43.6,30.12,NW,315,3.8,5.8,60,0.00,OVC,,0.00,WeatherDisplay:10.37,2013-09-23 18:27:00,
2013-09-23 14:32:00,57.9,44.5,30.12,SW,225,4.5,7.0,61,0.00,OVC,,0.00,WeatherDisplay:10.37,2013-09-23 18:32:00,
2013-09-23 14:37:00,58.3,44.5,30.12,ENE,68,6.3,9.2,60,0.00,OVC,,0.00,WeatherDisplay:10.37,2013-09-23 18:37:00,
2013-09-23 14:42:00,58.3,44.0,30.12,ESE,112,0.0,2.3,59,0.00,OVC,,0.00,WeatherDisplay:10.37,2013-09-23 18:42:00,
2013-09-23 14:47:00,59.5,44.7,30.12,NE,45,3.5,4.6,58,0.00,OVC,,0.00,WeatherDisplay:10.37,2013-09-23 18:47:00,
2013-09-23 14:52:00,58.3,44.5,30.12,North,360,7.1,7.8,60,0.00,OVC,,0.00,WeatherDisplay:10.37,2013-09-23 18:52:00,
2013-09-23 14:57:00,58.6,45.6,30.11,SW,225,2.7,4.6,62,0.00,OVC,,0.00,WeatherDisplay:10.37,2013-09-23 18:57:00,
2013-09-23 15:02:00,59.0,44.7,30.11,NNW,338,5.0,6.9,59,0.00,OVC,,0.00,WeatherDisplay:10.37,2013-09-23 19:02:00,
2013-09-23 15:07:00,58.8,45.0,30.11,ENE,68,3.9,5.8,60,0.00,OVC,,0.00,WeatherDisplay:10.37,2013-09-23 19:07:00,
2013-09-23 15:12:00,58.8,45.4,30.11,NNE,22,0.0,0.0,61,0.00,OVC,,0.00,WeatherDisplay:10.37,2013-09-23 19:12:00,
2013-09-23 15:17:00,59.3,44.5,30.11,NE,45,2.6,7.8,58,0.00,OVC,,0.00,WeatherDisplay:10.37,2013-09-23 19:17:00,
2013-09-23 15:22:00,59.2,44.9,30.11,NNE,22,5.5,7.0,59,0.00,OVC,,0.00,WeatherDisplay:10.37,2013-09-23 19:22:00,
2013-09-23 15:27:00,59.2,44.9,30.11,NW,315,3.7,4.4,59,0.00,OVC,,0.00,WeatherDisplay:10.37,2013-09-23 19:27:00,
2013-09-23 15:32:00,59.2,45.3,30.11,NNW,338,5.3,6.1,60,0.00,OVC,,0.00,WeatherDisplay:10.37,2013-09-23 19:32:00,
2013-09-23 15:37:00,59.2,44.9,30.11,East,90,2.6,5.8,59,0.00,OVC,,0.00,WeatherDisplay:10.37,2013-09-23 19:37:00,
2013-09-23 15:42:00,59.3,45.0,30.11,NNE,22,4.9,5.8,59,0.00,OVC,,0.00,WeatherDisplay:10.37,2013-09-23 19:42:00,
2013-09-23 15:47:00,59.5,45.6,30.11,NW,315,5.6,6.1,60,0.00,OVC,,0.00,WeatherDisplay:10.37,2013-09-23 19:47:00,
2013-09-23 15:52:00,59.5,45.6,30.11,West,270,5.3,7.8,60,0.00,OVC,,0.00,WeatherDisplay:10.37,2013-09-23 19:52:00,
2013-09-23 15:57:00,56.5,44.5,30.10,NE,45,2.4,5.8,64,0.00,OVC,,0.00,WeatherDisplay:10.37,2013-09-23 19:57:00,
2013-09-23 16:02:00,57.7,44.8,30.10,ENE,68,7.3,9.2,62,0.00,OVC,,0.00,WeatherDisplay:10.37,2013-09-23 20:02:00,
2013-09-23 16:07:00,58.8,45.4,30.10,NNW,338,0.6,5.3,61,0.00,OVC,,0.00,WeatherDisplay:10.37,2013-09-23 20:07:00,
2013-09-23 16:12:00,58.4,45.0,30.10,NE,45,5.9,8.1,61,0.00,OVC,,0.00,WeatherDisplay:10.37,2013-09-23 20:12:00,
2013-09-23 16:17:00,59.2,45.3,30.10,North,360,3.0,3.6,60,0.00,OVC,,0.00,WeatherDisplay:10.37,2013-09-23 20:17:00,
2013-09-23 16:22:00,58.1,46.0,30.10,NNE,22,5.1,7.8,64,0.00,OVC,,0.00,WeatherDisplay:10.37,2013-09-23 20:22:00,
2013-09-23 16:27:00,58.8,45.4,30.10,NNE,22,4.4,4.6,61,0.00,OVC,,0.00,WeatherDisplay:10.37,2013-09-23 20:27:00,
2013-09-23 16:32:00,58.3,44.9,30.11,ENE,68,4.1,8.1,61,0.00,OVC,,0.00,WeatherDisplay:10.37,2013-09-23 20:32:00,
2013-09-23 16:37:00,57.9,45.8,30.11,South,180,4.4,10.4,64,0.00,OVC,,0.00,WeatherDisplay:10.37,2013-09-23 20:37:00,
2013-09-23 16:42:00,58.1,45.6,30.10,NNW,338,4.4,6.1,63,0.00,OVC,,0.00,WeatherDisplay:10.37,2013-09-23 20:42:00,
2013-09-23 16:47:00,59.2,45.8,30.10,WSW,248,3.5,4.6,61,0.00,OVC,,0.00,WeatherDisplay:10.37,2013-09-23 20:47:00,
2013-09-23 16:52:00,58.6,45.6,30.10,ENE,68,3.5,5.8,62,0.00,OVC,,0.00,WeatherDisplay:10.37,2013-09-23 20:52:00,
2013-09-23 16:57:00,58.8,45.4,30.10,SW,225,0.0,3.5,61,0.00,OVC,,0.00,WeatherDisplay:10.37,2013-09-23 20:57:00,
2013-09-23 17:02:00,58.1,46.0,30.10,West,270,4.6,6.1,64,0.00,BKN,,0.00,WeatherDisplay:10.37,2013-09-23 21:02:00,
2013-09-23 17:07:00,57.9,46.2,30.11,North,360,3.5,4.4,65,0.00,BKN,,0.00,WeatherDisplay:10.37,2013-09-23 21:07:00,
2013-09-23 17:12:00,58.8,46.7,30.11,NW,315,3.4,4.6,64,0.00,BKN,,0.00,WeatherDisplay:10.37,2013-09-23 21:12:00,
2013-09-23 17:17:00,61.3,45.9,30.11,NNE,22,4.2,5.8,57,0.00,BKN,,0.00,WeatherDisplay:10.37,2013-09-23 21:17:00,
2013-09-23 17:22:00,62.4,46.5,30.11,SW,225,4.1,4.6,56,0.00,BKN,,0.00,WeatherDisplay:10.37,2013-09-23 21:22:00,
2013-09-23 17:27:00,62.9,46.5,30.11,WSW,248,5.0,5.8,55,0.00,BKN,,0.00,WeatherDisplay:10.37,2013-09-23 21:27:00,
2013-09-23 17:32:00,61.9,45.6,30.11,West,270,2.8,4.6,55,0.00,BKN,,0.00,WeatherDisplay:10.37,2013-09-23 21:32:00,
2013-09-23 17:37:00,61.1,45.3,30.11,NNE,22,0.0,4.6,56,0.00,BKN,,0.00,WeatherDisplay:10.37,2013-09-23 21:37:00,
2013-09-23 17:42:00,61.1,46.2,30.10,West,270,0.4,3.6,58,0.00,BKN,,0.00,WeatherDisplay:10.37,2013-09-23 21:42:00,
2013-09-23 17:47:00,59.7,47.1,30.10,WNW,292,3.9,6.1,63,0.00,BKN,,0.00,WeatherDisplay:10.37,2013-09-23 21:47:00,
2013-09-23 17:52:00,59.3,46.3,30.10,NNW,338,3.8,4.4,62,0.00,BKN,,0.00,WeatherDisplay:10.37,2013-09-23 21:52:00,
2013-09-23 17:57:00,57.9,44.5,30.10,ENE,68,6.5,7.8,61,0.00,BKN,,0.00,WeatherDisplay:10.37,2013-09-23 21:57:00,
2013-09-23 18:02:00,57.0,44.5,30.10,NW,315,3.4,5.8,63,0.00,BKN,,0.00,WeatherDisplay:10.37,2013-09-23 22:02:00,
2013-09-23 18:07:00,57.0,45.0,30.10,ENE,68,5.2,7.0,64,0.00,BKN,,0.00,WeatherDisplay:10.37,2013-09-23 22:07:00,
2013-09-23 18:12:00,57.2,45.1,30.10,NE,45,1.9,3.5,64,0.00,BKN,,0.00,WeatherDisplay:10.37,2013-09-23 22:12:00,
2013-09-23 18:17:00,57.4,44.9,30.10,NE,45,1.0,3.6,63,0.00,BKN,,0.00,WeatherDisplay:10.37,2013-09-23 22:17:00,
2013-09-23 18:22:00,56.5,44.5,30.10,NE,45,2.5,6.9,64,0.00,BKN,,0.00,WeatherDisplay:10.37,2013-09-23 22:22:00,
2013-09-23 18:27:00,56.1,45.7,30.10,NNE,22,0.0,3.5,68,0.00,BKN,,0.00,WeatherDisplay:10.37,2013-09-23 22:27:00,
2013-09-23 18:32:00,55.6,45.6,30.10,NE,45,0.0,0.0,69,0.00,BKN,,0.00,WeatherDisplay:10.37,2013-09-23 22:32:00,
2013-09-23 18:37:00,55.2,46.7,30.10,NNE,22,0.0,0.0,73,0.00,BKN,,0.00,WeatherDisplay:10.37,2013-09-23 22:37:00,
2013-09-23 18:42:00,54.3,46.9,30.10,NNE,22,2.6,2.7,76,0.00,BKN,,0.00,WeatherDisplay:10.37,2013-09-23 22:42:00,
2013-09-23 18:47:00,53.4,46.4,30.10,NNE,22,0.2,3.5,77,0.00,BKN,,0.00,WeatherDisplay:10.37,2013-09-23 22:47:00,
2013-09-23 18:53:00,52.7,46.7,30.10,NNE,22,1.1,2.3,80,0.00,BKN,,0.00,WeatherDisplay:10.37,2013-09-23 22:53:00,
2013-09-23 18:58:00,52.5,46.5,30.10,NNE,22,2.1,2.7,80,0.00,BKN,,0.00,WeatherDisplay:10.37,2013-09-23 22:58:00,
2013-09-23 19:03:00,51.8,46.5,30.10,NNE,22,0.0,0.0,82,0.00,SCT,,0.00,WeatherDisplay:10.37,2013-09-23 23:03:00,
2013-09-23 19:08:00,51.2,46.6,30.10,NNE,22,0.0,0.0,84,0.00,SCT,,0.00,WeatherDisplay:10.37,2013-09-23 23:08:00,
2013-09-23 19:13:00,50.9,46.3,30.10,NNE,22,0.0,0.0,84,0.00,SCT,,0.00,WeatherDisplay:10.37,2013-09-23 23:13:00,
2013-09-23 19:18:00,50.5,46.5,30.10,NNE,22,0.0,0.0,86,0.00,SCT,,0.00,WeatherDisplay:10.37,2013-09-23 23:18:00,
2013-09-23 19:23:00,50.0,46.3,30.10,NNE,22,0.0,0.0,87,0.00,SCT,,0.00,WeatherDisplay:10.37,2013-09-23 23:23:00,
2013-09-23 19:28:00,49.4,46.0,30.10,NNE,22,0.0,0.0,88,0.00,SCT,,0.00,WeatherDisplay:10.37,2013-09-23 23:28:00,
2013-09-23 19:33:00,48.9,45.8,30.10,NNE,22,0.0,0.0,89,0.00,SCT,,0.00,WeatherDisplay:10.37,2013-09-23 23:33:00,
2013-09-23 19:38:00,48.7,45.9,30.10,NNE,22,0.0,0.0,90,0.00,SCT,,0.00,WeatherDisplay:10.37,2013-09-23 23:38:00,
2013-09-23 19:43:00,48.2,45.7,30.10,NNE,22,0.0,0.0,91,0.00,SCT,,0.00,WeatherDisplay:10.37,2013-09-23 23:43:00,
2013-09-23 19:48:00,47.8,45.3,30.10,NNE,22,0.0,0.0,91,0.00,SCT,,0.00,WeatherDisplay:10.37,2013-09-23 23:48:00,
2013-09-23 19:53:00,47.3,45.1,30.10,NNE,22,0.0,0.0,92,0.00,SCT,,0.00,WeatherDisplay:10.37,2013-09-23 23:53:00,
2013-09-23 19:58:00,47.3,45.1,30.10,NNE,22,0.0,0.0,92,0.00,SCT,,0.00,WeatherDisplay:10.37,2013-09-23 23:58:00,
2013-09-23 20:03:00,46.9,45.0,30.10,NNE,22,0.0,0.0,93,0.00,SKC,,0.00,WeatherDisplay:10.37,2013-09-24 00:03:00,
2013-09-23 20:08:00,46.7,44.8,30.10,NNE,22,0.0,0.0,93,0.00,SKC,,0.00,WeatherDisplay:10.37,2013-09-24 00:08:00,
2013-09-23 20:13:00,46.6,45.0,30.10,NNE,22,0.0,0.0,94,0.00,SKC,,0.00,WeatherDisplay:10.37,2013-09-24 00:13:00,
2013-09-23 20:18:00,46.0,44.7,30.11,NNE,22,0.0,0.0,95,0.00,SKC,,0.00,WeatherDisplay:10.37,2013-09-24 00:18:00,
2013-09-23 20:23:00,45.8,44.5,30.11,NNE,22,0.0,0.0,95,0.00,SKC,,0.00,WeatherDisplay:10.37,2013-09-24 00:23:00,
2013-09-23 20:28:00,45.7,44.6,30.11,NNE,22,0.0,0.0,96,0.00,SKC,,0.00,WeatherDisplay:10.37,2013-09-24 00:28:00,
2013-09-23 20:33:00,45.5,44.7,30.11,NNE,22,0.0,0.0,97,0.00,SKC,,0.00,WeatherDisplay:10.37,2013-09-24 00:33:00,
2013-09-23 20:38:00,45.1,44.0,30.11,NNE,22,0.0,0.0,96,0.00,SKC,,0.00,WeatherDisplay:10.37,2013-09-24 00:38:00,
2013-09-23 20:43:00,45.1,44.3,30.11,NNE,22,0.0,0.0,97,0.00,SKC,,0.00,WeatherDisplay:10.37,2013-09-24 00:43:00,
2013-09-23 20:48:00,44.9,44.1,30.11,NNE,22,0.0,0.0,97,0.00,SKC,,0.00,WeatherDisplay:10.37,2013-09-24 00:48:00,
2013-09-23 20:53:00,44.8,44.0,30.11,NNE,22,0.0,0.0,97,0.00,SKC,,0.00,WeatherDisplay:10.37,2013-09-24 00:53:00,
2013-09-23 20:58:00,44.6,43.8,30.11,NNE,22,0.0,0.0,97,0.00,SKC,,0.00,WeatherDisplay:10.37,2013-09-24 00:58:00,
2013-09-23 21:03:00,44.6,43.8,30.11,NNE,22,0.0,0.0,97,0.00,SKC,,0.00,WeatherDisplay:10.37,2013-09-24 01:03:00,
2013-09-23 21:08:00,44.2,43.7,30.11,NNE,22,0.0,0.0,98,0.00,SKC,,0.00,WeatherDisplay:10.37,2013-09-24 01:08:00,
2013-09-23 21:13:00,44.0,43.5,30.11,NNE,22,0.0,0.0,98,0.00,SKC,,0.00,WeatherDisplay:10.37,2013-09-24 01:13:00,
2013-09-23 21:18:00,43.9,43.7,30.11,NNE,22,0.0,0.0,99,0.00,SKC,,0.00,WeatherDisplay:10.37,2013-09-24 01:18:00,
2013-09-23 21:23:00,43.7,43.2,30.11,NNE,22,0.0,0.0,98,0.00,SKC,,0.00,WeatherDisplay:10.37,2013-09-24 01:23:00,
2013-09-23 21:28:00,43.7,43.5,30.11,NNE,22,0.0,0.0,99,0.00,SKC,,0.00,WeatherDisplay:10.37,2013-09-24 01:28:00,
2013-09-23 21:33:00,43.5,43.3,30.11,NNE,22,0.0,0.0,99,0.00,SKC,,0.00,WeatherDisplay:10.37,2013-09-24 01:33:00,
2013-09-23 21:38:00,43.3,42.8,30.11,NNE,22,0.0,0.0,98,0.00,SKC,,0.00,WeatherDisplay:10.37,2013-09-24 01:38:00,
2013-09-23 21:43:00,43.1,42.6,30.11,NNE,22,0.0,0.0,98,0.00,SKC,,0.00,WeatherDisplay:10.37,2013-09-24 01:43:00,
2013-09-23 21:48:00,43.1,42.9,30.11,NNE,22,0.0,0.0,99,0.00,SKC,,0.00,WeatherDisplay:10.37,2013-09-24 01:48:00,
2013-09-23 21:53:00,43.1,42.9,30.11,NNE,22,0.0,0.0,99,0.00,SKC,,0.00,WeatherDisplay:10.37,2013-09-24 01:53:00,
2013-09-23 21:58:00,42.8,42.3,30.11,NNE,22,0.0,0.0,98,0.00,SKC,,0.00,WeatherDisplay:10.37,2013-09-24 01:58:00,
2013-09-23 22:03:00,42.4,42.2,30.11,NNE,22,0.0,0.0,99,0.00,SKC,,0.00,WeatherDisplay:10.37,2013-09-24 02:03:00,
2013-09-23 22:08:00,42.4,42.2,30.11,NNE,22,0.0,0.0,99,0.00,SKC,,0.00,WeatherDisplay:10.37,2013-09-24 02:08:00,
2013-09-23 22:13:00,42.4,42.4,30.11,NNE,22,0.0,0.0,100,0.00,SKC,,0.00,WeatherDisplay:10.37,2013-09-24 02:13:00,
2013-09-23 22:18:00,42.2,42.2,30.11,NNE,22,0.0,0.0,100,0.00,SKC,,0.00,WeatherDisplay:10.37,2013-09-24 02:18:00,
2013-09-23 22:23:00,42.2,42.2,30.11,NNE,22,0.0,0.0,100,0.00,SKC,,0.00,WeatherDisplay:10.37,2013-09-24 02:23:00,
2013-09-23 22:28:00,41.9,41.9,30.11,NNE,22,0.0,0.0,100,0.00,SKC,,0.00,WeatherDisplay:10.37,2013-09-24 02:28:00,
2013-09-23 22:33:00,41.7,41.7,30.11,NNE,22,0.0,0.0,100,0.00,SKC,,0.00,WeatherDisplay:10.37,2013-09-24 02:33:00,
2013-09-23 22:38:00,41.7,41.7,30.11,NNE,22,0.0,0.0,100,0.00,SKC,,0.00,WeatherDisplay:10.37,2013-09-24 02:38:00,
2013-09-23 22:43:00,41.7,41.7,30.11,NNE,22,0.0,0.0,100,0.00,SKC,,0.00,WeatherDisplay:10.37,2013-09-24 02:43:00,
2013-09-23 22:48:00,41.7,41.7,30.11,NNE,22,0.0,0.0,100,0.00,SKC,,0.00,WeatherDisplay:10.37,2013-09-24 02:48:00,
2013-09-23 22:53:00,41.5,41.5,30.11,NNE,22,0.0,0.0,100,0.00,SKC,,0.00,WeatherDisplay:10.37,2013-09-24 02:53:00,
2013-09-23 22:58:00,41.3,41.3,30.11,NNE,22,0.0,0.0,100,0.00,SKC,,0.00,WeatherDisplay:10.37,2013-09-24 02:58:00,
2013-09-23 23:03:00,41.2,41.2,30.11,NNE,22,0.0,0.0,100,0.00,SKC,,0.00,WeatherDisplay:10.37,2013-09-24 03:03:00,
2013-09-23 23:08:00,41.2,41.2,30.11,NNE,22,0.0,0.0,100,0.00,SKC,,0.00,WeatherDisplay:10.37,2013-09-24 03:08:00,
2013-09-23 23:13:00,41.2,41.2,30.11,NNE,22,0.0,0.0,100,0.00,SKC,,0.00,WeatherDisplay:10.37,2013-09-24 03:13:00,
2013-09-23 23:18:00,41.0,41.0,30.11,NNE,22,0.0,0.0,100,0.00,SKC,,0.00,WeatherDisplay:10.37,2013-09-24 03:18:00,
2013-09-23 23:23:00,40.8,40.8,30.11,NNE,22,0.0,0.0,100,0.00,SKC,,0.00,WeatherDisplay:10.37,2013-09-24 03:23:00,
2013-09-23 23:28:00,40.8,40.8,30.11,NNE,22,0.0,0.0,100,0.00,SKC,,0.00,WeatherDisplay:10.37,2013-09-24 03:28:00,
2013-09-23 23:33:00,40.4,40.4,30.11,NNE,22,0.0,0.0,100,0.00,SKC,,0.00,WeatherDisplay:10.37,2013-09-24 03:33:00,
2013-09-23 23:38:00,40.3,40.3,30.11,NNE,22,0.0,0.0,100,0.00,SKC,,0.00,WeatherDisplay:10.37,2013-09-24 03:38:00,
2013-09-23 23:43:00,40.3,40.3,30.11,NNE,22,0.0,0.0,100,0.00,SKC,,0.00,WeatherDisplay:10.37,2013-09-24 03:43:00,
2013-09-23 23:48:00,40.3,40.3,30.11,NNE,22,0.0,0.0,100,0.00,SKC,,0.00,WeatherDisplay:10.37,2013-09-24 03:48:00,
2013-09-23 23:53:00,40.1,40.1,30.11,NNE,22,0.0,0.0,100,0.00,SKC,,0.00,WeatherDisplay:10.37,2013-09-24 03:53:00,
2013-09-23 23:58:00,39.9,39.9,30.11,NNE,22,0.0,0.0,100,0.00,SKC,,0.00,WeatherDisplay:10.37,2013-09-24 03:58:00,